Time;durP1;ratioP1;P1;durP2;ratioP2;P2;SDS_P1;SDS_P2;PMS_P1;PMS_P2;Temp;Humidity;BMP_temperature;BMP_pressure;BME280_temperature;BME280_humidity;BME280_pressure;Samples;Min_cycle;Max_cycle;Signal;HPM_P1;HPM_P2
2021/06/21 00:01:34;;;;;;;16.17;13.32;;;19.60;99.90;;;;;;5014449;28;20192;-84
2021/06/21 00:03:59;;;;;;;16.90;13.15;;;19.60;99.90;;;;;;5015788;28;20176;-84
2021/06/21 00:06:25;;;;;;;20.65;13.10;;;19.60;99.90;;;;;;5015745;28;20173;-84
2021/06/21 00:08:51;;;;;;;18.35;13.77;;;19.60;99.90;;;;;;5013974;28;20175;-85
2021/06/21 00:11:17;;;;;;;17.88;13.38;;;19.60;99.90;;;;;;5014109;28;20685;-85
2021/06/21 00:13:42;;;;;;;18.90;13.85;;;19.40;99.90;;;;;;5014006;28;20192;-85
2021/06/21 00:16:09;;;;;;;18.13;14.82;;;19.40;99.90;;;;;;5014043;28;20180;-85
2021/06/21 00:18:34;;;;;;;17.02;13.27;;;19.20;99.90;;;;;;5014100;28;20172;-85
2021/06/21 00:21:00;;;;;;;18.23;15.02;;;19.20;99.90;;;;;;5014182;28;20175;-85
2021/06/21 00:23:26;;;;;;;17.50;14.02;;;19.20;99.90;;;;;;5013990;28;20208;-85
2021/06/21 00:25:52;;;;;;;26.90;15.13;;;19.10;99.90;;;;;;5013698;28;20161;-85
2021/06/21 00:28:18;;;;;;;21.95;16.35;;;19.10;99.90;;;;;;5013819;28;20173;-85
2021/06/21 00:30:45;;;;;;;20.58;15.70;;;19.20;99.90;;;;;;5015506;28;20168;-85
2021/06/21 00:33:11;;;;;;;21.52;15.75;;;19.10;99.90;;;;;;5014405;28;20212;-85
2021/06/21 00:35:37;;;;;;;23.73;15.35;;;19.00;99.90;;;;;;5015659;28;20516;-85
2021/06/21 00:38:06;;;;;;;25.05;15.70;;;19.00;99.90;;;;;;5015738;28;20203;-85
2021/06/21 00:40:36;;;;;;;18.05;15.40;;;19.00;99.90;;;;;;5014328;28;20177;-83
2021/06/21 00:43:03;;;;;;;21.15;15.48;;;19.00;99.90;;;;;;5013772;28;20195;-83
2021/06/21 00:45:28;;;;;;;26.30;15.57;;;19.10;99.90;;;;;;5014207;28;20306;-83
2021/06/21 00:47:54;;;;;;;26.77;16.23;;;19.10;99.90;;;;;;5015186;28;20195;-83
2021/06/21 00:50:22;;;;;;;26.20;16.42;;;19.20;99.90;;;;;;5013981;28;20172;-83
2021/06/21 00:52:52;;;;;;;22.83;17.05;;;19.40;99.90;;;;;;5014039;28;20208;-85
2021/06/21 00:55:17;;;;;;;29.35;16.85;;;19.30;99.90;;;;;;5014117;28;20267;-85
2021/06/21 00:57:43;;;;;;;23.73;16.33;;;19.30;99.90;;;;;;5013950;28;20700;-82
2021/06/21 01:00:15;;;;;;;22.83;16.55;;;19.40;99.90;;;;;;5013691;28;20175;-83
2021/06/21 01:02:42;;;;;;;21.33;15.90;;;19.20;99.90;;;;;;5014029;28;20242;-83
2021/06/21 01:05:20;;;;;;;23.20;15.98;;;19.10;99.90;;;;;;5013766;28;20228;-85
2021/06/21 01:07:46;;;;;;;23.92;16.23;;;19.00;99.90;;;;;;5013606;28;20173;-85
2021/06/21 01:10:13;;;;;;;24.23;16.30;;;18.90;99.90;;;;;;5013671;28;20168;-84
2021/06/21 01:13:09;;;;;;;23.35;15.20;;;19.00;99.90;;;;;;5013230;28;20299;-85
2021/06/21 01:15:40;;;;;;;21.50;15.48;;;19.00;99.90;;;;;;4997018;28;20181;-85
2021/06/21 01:18:26;;;;;;;19.50;14.82;;;19.10;99.90;;;;;;5013286;28;20172;-85
2021/06/21 01:21:17;;;;;;;18.77;15.20;;;19.00;99.90;;;;;;5014522;28;20247;-85
2021/06/21 01:23:54;;;;;;;23.30;15.73;;;19.00;99.90;;;;;;5013186;28;20219;-85
2021/06/21 01:26:28;;;;;;;18.92;15.60;;;19.00;99.90;;;;;;5014436;28;20176;-85
2021/06/21 01:29:23;;;;;;;21.10;15.50;;;19.00;99.90;;;;;;5013136;28;20180;-84
2021/06/21 01:32:07;;;;;;;20.10;13.50;;;18.90;99.90;;;;;;5012810;28;20208;-85
2021/06/21 01:34:35;;;;;;;22.88;14.13;;;19.00;99.90;;;;;;5013202;28;20276;-84
2021/06/21 01:37:02;;;;;;;20.48;13.68;;;18.90;99.90;;;;;;5013817;28;20581;-85
2021/06/21 01:39:32;;;;;;;13.75;12.23;;;18.90;99.90;;;;;;5012741;28;20636;-85
2021/06/21 01:42:09;;;;;;;21.08;13.75;;;18.90;99.90;;;;;;5014183;28;20998;-85
2021/06/21 01:44:51;;;;;;;14.88;13.05;;;18.80;99.90;;;;;;5013536;28;20168;-86
2021/06/21 01:47:18;;;;;;;17.25;13.50;;;18.90;99.90;;;;;;5015152;28;20659;-85
2021/06/21 01:49:49;;;;;;;15.73;13.02;;;18.80;99.90;;;;;;5017497;28;20172;-85
2021/06/21 01:52:18;;;;;;;15.80;11.95;;;18.70;99.90;;;;;;5029408;28;20216;-86
2021/06/21 01:55:12;;;;;;;18.25;13.85;;;18.80;99.90;;;;;;5036056;28;20172;-85
2021/06/21 01:57:40;;;;;;;15.30;12.15;;;18.70;99.90;;;;;;5028379;28;20637;-85
2021/06/21 02:00:08;;;;;;;19.13;13.00;;;18.60;99.90;;;;;;5018057;28;20209;-87
2021/06/21 02:02:36;;;;;;;15.18;11.85;;;18.50;99.90;;;;;;5015524;28;20196;-86
2021/06/21 02:05:04;;;;;;;19.25;13.95;;;18.60;99.90;;;;;;5014529;28;20175;-85
2021/06/21 02:07:32;;;;;;;17.58;13.57;;;18.60;99.90;;;;;;5015020;28;20180;-85
2021/06/21 02:09:59;;;;;;;21.77;13.25;;;18.60;99.90;;;;;;5015185;28;20164;-85
2021/06/21 02:12:26;;;;;;;14.20;12.05;;;18.60;99.90;;;;;;5014140;28;20204;-85
2021/06/21 02:14:53;;;;;;;18.92;13.27;;;18.60;99.90;;;;;;5016418;28;20164;-85
2021/06/21 02:17:26;;;;;;;17.70;12.32;;;18.70;99.90;;;;;;5014992;28;20176;-86
2021/06/21 02:19:53;;;;;;;14.73;13.18;;;18.70;99.90;;;;;;5014656;28;20232;-83
2021/06/21 02:22:23;;;;;;;15.38;13.77;;;18.60;99.90;;;;;;5013875;28;20700;-83
2021/06/21 02:24:51;;;;;;;19.90;13.00;;;18.60;99.90;;;;;;5014018;28;20200;-86
2021/06/21 02:27:19;;;;;;;20.60;12.32;;;18.60;99.90;;;;;;5014283;28;20172;-86
2021/06/21 02:29:47;;;;;;;13.98;12.55;;;18.50;99.90;;;;;;5012776;28;20161;-84
2021/06/21 02:32:12;;;;;;;15.48;12.73;;;18.50;99.90;;;;;;5014131;28;20223;-86
2021/06/21 02:34:38;;;;;;;22.08;12.60;;;18.50;99.90;;;;;;5012839;28;20173;-86
2021/06/21 02:37:04;;;;;;;16.65;13.05;;;18.50;99.90;;;;;;5012717;28;20632;-86
2021/06/21 02:39:53;;;;;;;13.40;11.85;;;18.50;99.90;;;;;;5014310;28;20720;-87
2021/06/21 02:42:18;;;;;;;14.20;12.40;;;18.50;99.90;;;;;;5013679;28;20298;-87
2021/06/21 02:44:46;;;;;;;15.50;11.35;;;18.40;99.90;;;;;;5013041;28;20176;-87
2021/06/21 02:47:14;;;;;;;13.57;12.18;;;18.40;99.90;;;;;;5012817;28;20181;-88
2021/06/21 02:49:40;;;;;;;14.65;12.85;;;18.30;99.90;;;;;;5015263;28;20157;-87
2021/06/21 02:52:27;;;;;;;14.07;11.63;;;18.40;99.90;;;;;;5016658;28;20212;-86
2021/06/21 02:55:06;;;;;;;17.23;12.02;;;18.50;99.90;;;;;;5016798;28;20168;-87
2021/06/21 02:57:56;;;;;;;14.80;12.65;;;18.40;99.90;;;;;;5016644;28;20180;-86
2021/06/21 03:00:22;;;;;;;14.20;12.00;;;18.50;99.90;;;;;;5016772;28;20587;-86
2021/06/21 03:02:49;;;;;;;12.70;11.50;;;18.40;99.90;;;;;;5016367;28;20192;-87
2021/06/21 03:05:17;;;;;;;15.73;11.38;;;18.30;99.90;;;;;;5016461;28;20221;-86
2021/06/21 03:07:44;;;;;;;12.52;11.32;;;18.10;99.90;;;;;;5016262;28;20176;-86
2021/06/21 03:10:13;;;;;;;13.18;10.43;;;18.20;99.90;;;;;;5017437;28;20165;-87
2021/06/21 03:12:41;;;;;;;14.70;9.85;;;18.20;99.90;;;;;;5016036;28;20215;-87
2021/06/21 03:15:08;;;;;;;10.93;9.88;;;18.20;99.90;;;;;;5016117;28;20199;-86
2021/06/21 03:17:38;;;;;;;12.57;10.68;;;18.10;99.90;;;;;;5016229;28;20641;-86
2021/06/21 03:20:05;;;;;;;9.98;9.15;;;18.10;99.90;;;;;;5017671;28;20197;-86
2021/06/21 03:22:31;;;;;;;13.82;10.52;;;18.00;99.90;;;;;;5017096;28;20209;-87
2021/06/21 03:24:57;;;;;;;10.02;9.02;;;17.90;99.90;;;;;;5016431;28;20177;-87
2021/06/21 03:27:35;;;;;;;9.90;9.00;;;18.00;99.90;;;;;;5016552;28;20251;-87
2021/06/21 03:30:05;;;;;;;12.52;9.13;;;18.00;99.90;;;;;;5016564;28;20182;-85
2021/06/21 03:32:33;;;;;;;10.55;9.00;;;18.00;99.90;;;;;;5015776;28;20219;-87
2021/06/21 03:35:02;;;;;;;9.90;8.43;;;17.90;99.90;;;;;;5015997;28;20169;-86
2021/06/21 03:37:28;;;;;;;10.52;9.38;;;17.90;99.90;;;;;;5015718;28;20169;-87
2021/06/21 03:39:55;;;;;;;9.38;8.48;;;17.90;99.90;;;;;;5015580;28;20177;-86
2021/06/21 03:42:20;;;;;;;8.73;7.80;;;17.80;99.90;;;;;;5015492;28;20656;-86
2021/06/21 03:44:47;;;;;;;7.82;6.82;;;17.70;99.90;;;;;;5015529;28;20259;-86
2021/06/21 03:47:14;;;;;;;5.90;5.40;;;17.70;99.90;;;;;;5016709;28;20173;-86
2021/06/21 03:49:45;;;;;;;7.90;5.85;;;17.60;99.90;;;;;;5015374;28;20179;-86
2021/06/21 03:52:11;;;;;;;5.82;5.32;;;17.40;99.90;;;;;;5014964;28;20580;-86
2021/06/21 03:54:37;;;;;;;5.80;5.30;;;17.40;99.90;;;;;;5015494;28;20244;-84
2021/06/21 03:57:05;;;;;;;5.00;4.55;;;17.30;99.90;;;;;;5015599;28;20584;-86
2021/06/21 03:59:30;;;;;;;5.28;4.88;;;17.20;99.90;;;;;;5015229;28;20183;-86
2021/06/21 04:01:57;;;;;;;5.28;4.88;;;17.20;99.90;;;;;;5015153;28;20196;-86
2021/06/21 04:04:23;;;;;;;6.03;5.53;;;17.30;99.90;;;;;;5016298;28;20172;-86
2021/06/21 04:06:49;;;;;;;7.13;6.55;;;17.30;99.90;;;;;;5015444;28;20200;-87
2021/06/21 04:09:15;;;;;;;6.00;5.45;;;17.30;99.90;;;;;;5016573;28;20192;-83
2021/06/21 04:11:40;;;;;;;6.38;5.78;;;17.20;99.90;;;;;;5015123;28;20676;-84
2021/06/21 04:14:06;;;;;;;6.95;5.20;;;17.20;99.90;;;;;;5015035;28;20191;-83
2021/06/21 04:16:32;;;;;;;6.00;5.38;;;17.20;99.90;;;;;;5015847;28;20625;-83
2021/06/21 04:18:58;;;;;;;6.47;5.72;;;17.10;99.90;;;;;;5014967;28;20177;-86
2021/06/21 04:21:31;;;;;;;6.43;5.45;;;17.10;99.90;;;;;;5014679;28;20247;-86
2021/06/21 04:23:56;;;;;;;6.13;5.53;;;17.00;99.90;;;;;;5014780;28;20219;-86
2021/06/21 04:26:23;;;;;;;6.13;4.90;;;17.00;99.90;;;;;;5015711;28;20203;-85
2021/06/21 04:28:49;;;;;;;6.10;5.60;;;16.80;99.90;;;;;;5014061;28;20624;-86
2021/06/21 04:31:15;;;;;;;5.82;5.32;;;16.80;99.90;;;;;;5014159;28;20204;-86
2021/06/21 04:33:41;;;;;;;6.97;6.35;;;17.00;99.90;;;;;;5015883;28;20167;-86
2021/06/21 04:36:07;;;;;;;6.03;5.43;;;17.10;99.90;;;;;;5015412;28;20172;-86
2021/06/21 04:38:33;;;;;;;6.15;5.57;;;16.90;99.90;;;;;;5014274;28;20627;-86
2021/06/21 04:40:59;;;;;;;7.10;5.70;;;16.80;99.90;;;;;;5015470;28;20188;-85
2021/06/21 04:43:24;;;;;;;6.30;5.80;;;16.80;99.90;;;;;;5015260;28;20200;-84
2021/06/21 04:45:50;;;;;;;6.43;5.82;;;16.80;99.90;;;;;;5015309;28;20188;-86
2021/06/21 04:48:16;;;;;;;8.10;6.00;;;16.70;99.90;;;;;;5014832;28;20169;-85
2021/06/21 04:50:42;;;;;;;6.60;6.10;;;16.90;99.90;;;;;;5014555;28;20176;-82
2021/06/21 04:53:12;;;;;;;7.70;5.20;;;16.90;99.90;;;;;;5012858;28;20266;-83
2021/06/21 04:55:38;;;;;;;6.40;5.90;;;17.10;99.90;;;;;;5013295;28;20169;-82
2021/06/21 04:58:03;;;;;;;9.30;5.55;;;17.10;99.90;;;;;;5014571;28;20160;-81
2021/06/21 05:00:29;;;;;;;8.00;6.78;;;17.00;99.90;;;;;;5013878;28;20168;-87
2021/06/21 05:02:54;;;;;;;7.38;6.72;;;16.90;99.90;;;;;;5013771;28;20702;-86
2021/06/21 05:05:20;;;;;;;6.80;6.20;;;16.80;99.90;;;;;;5013868;28;20204;-86
2021/06/21 05:07:52;;;;;;;7.30;6.63;;;16.80;99.90;;;;;;5014330;28;20177;-84
2021/06/21 05:10:20;;;;;;;7.18;6.45;;;16.70;99.90;;;;;;5014635;28;20172;-88
2021/06/21 05:12:46;;;;;;;6.07;5.57;;;16.60;99.90;;;;;;5013931;28;20224;-87
2021/06/21 05:15:13;;;;;;;7.07;6.28;;;16.60;99.90;;;;;;5015482;28;20176;-88
2021/06/21 05:17:39;;;;;;;6.40;5.40;;;16.40;99.90;;;;;;5013886;28;20621;-86
2021/06/21 05:20:06;;;;;;;10.15;6.00;;;16.50;99.90;;;;;;5013966;28;20179;-87
2021/06/21 05:22:32;;;;;;;5.35;4.95;;;16.50;99.90;;;;;;5013790;28;20688;-86
2021/06/21 05:24:59;;;;;;;6.15;5.65;;;16.50;99.90;;;;;;5015528;28;20179;-86
2021/06/21 05:27:26;;;;;;;4.93;4.53;;;16.50;99.90;;;;;;5013383;28;20260;-86
2021/06/21 05:29:52;;;;;;;5.93;5.35;;;16.50;99.90;;;;;;5018471;28;20172;-86
2021/06/21 05:32:20;;;;;;;5.25;4.80;;;16.60;99.90;;;;;;5033485;28;20196;-87
2021/06/21 05:34:46;;;;;;;6.97;5.15;;;16.60;99.90;;;;;;5026377;28;20230;-84
2021/06/21 05:37:12;;;;;;;5.63;5.13;;;16.60;99.90;;;;;;5020642;28;20176;-85
2021/06/21 05:39:38;;;;;;;6.00;5.28;;;16.60;99.90;;;;;;5016981;28;20172;-84
2021/06/21 05:42:05;;;;;;;12.85;4.60;;;16.70;99.90;;;;;;5015396;28;20197;-90
2021/06/21 05:44:30;;;;;;;4.63;4.22;;;16.70;99.90;;;;;;5013308;28;20226;-82
2021/06/21 05:46:56;;;;;;;5.10;4.70;;;16.70;99.90;;;;;;5012392;28;20650;-84
2021/06/21 05:49:22;;;;;;;7.45;4.43;;;16.80;99.90;;;;;;5013396;28;20173;-82
2021/06/21 05:51:47;;;;;;;7.13;4.55;;;17.00;99.90;;;;;;5012586;28;20219;-81
2021/06/21 05:54:13;;;;;;;4.22;3.83;;;16.90;99.90;;;;;;5013524;28;20259;-82
2021/06/21 05:56:39;;;;;;;5.90;4.43;;;17.00;99.90;;;;;;5013412;28;20183;-81
2021/06/21 05:59:04;;;;;;;3.58;3.35;;;17.00;99.90;;;;;;5011644;28;20183;-81
2021/06/21 06:01:30;;;;;;;4.18;3.63;;;17.00;99.90;;;;;;5013429;28;20569;-80
2021/06/21 06:03:56;;;;;;;4.63;3.83;;;17.00;99.90;;;;;;5013201;28;20172;-82
2021/06/21 06:06:21;;;;;;;5.10;4.03;;;17.00;99.90;;;;;;5011187;28;20267;-80
2021/06/21 06:08:47;;;;;;;5.82;4.32;;;17.10;99.90;;;;;;5011694;28;20175;-80
2021/06/21 06:11:13;;;;;;;4.18;3.88;;;17.20;99.90;;;;;;5012805;28;20164;-81
2021/06/21 06:13:39;;;;;;;4.57;4.18;;;17.40;99.90;;;;;;5012406;28;20177;-81
2021/06/21 06:16:05;;;;;;;4.32;3.92;;;17.40;99.90;;;;;;5012548;28;20231;-82
2021/06/21 06:18:30;;;;;;;4.03;3.65;;;17.40;99.90;;;;;;5011589;28;20540;-84
2021/06/21 06:20:59;;;;;;;4.53;4.13;;;17.30;99.90;;;;;;5013688;28;20169;-83
2021/06/21 06:23:25;;;;;;;4.07;3.78;;;17.40;99.90;;;;;;5012998;28;20622;-88
2021/06/21 06:25:50;;;;;;;4.53;4.13;;;17.40;99.90;;;;;;5011240;28;20172;-86
2021/06/21 06:28:17;;;;;;;4.65;4.22;;;17.40;99.90;;;;;;5012965;28;20172;-84
2021/06/21 06:30:42;;;;;;;5.93;4.43;;;17.50;99.90;;;;;;5013496;28;20229;-89
2021/06/21 06:33:08;;;;;;;5.43;4.93;;;17.70;99.90;;;;;;5012683;28;20303;-86
2021/06/21 06:35:34;;;;;;;4.50;4.10;;;17.70;99.90;;;;;;5012483;28;20269;-85
2021/06/21 06:37:59;;;;;;;5.90;5.00;;;17.50;99.90;;;;;;5013669;28;20168;-87
2021/06/21 06:40:25;;;;;;;8.32;4.82;;;17.40;99.90;;;;;;5012199;28;20169;-85
2021/06/21 06:42:54;;;;;;;5.00;4.60;;;17.60;99.90;;;;;;5012389;28;20279;-85
2021/06/21 06:45:20;;;;;;;5.82;5.18;;;17.60;99.90;;;;;;5012695;28;20175;-87
2021/06/21 06:47:46;;;;;;;5.45;4.95;;;17.60;99.90;;;;;;5013725;28;20263;-86
2021/06/21 06:50:12;;;;;;;5.72;5.32;;;17.60;99.90;;;;;;5012940;28;20646;-87
2021/06/21 06:52:39;;;;;;;13.15;5.53;;;17.50;99.90;;;;;;5012493;28;20281;-86
2021/06/21 06:57:50;;;;;;;4.95;4.55;;;17.50;99.90;;;;;;5012816;28;20199;-83
2021/06/21 07:00:16;;;;;;;6.90;5.22;;;17.20;99.90;;;;;;5011623;28;20570;-82
2021/06/21 07:02:44;;;;;;;7.43;4.13;;;17.00;99.90;;;;;;5011330;28;20189;-82
2021/06/21 07:05:10;;;;;;;5.25;4.63;;;16.80;99.90;;;;;;5013299;28;20168;-82
2021/06/21 07:07:36;;;;;;;11.30;4.35;;;16.50;99.90;;;;;;5011785;28;20279;-83
2021/06/21 07:10:03;;;;;;;4.32;3.92;;;16.50;99.90;;;;;;5011614;28;20184;-83
2021/06/21 07:12:28;;;;;;;7.70;3.20;;;16.30;99.90;;;;;;5011868;28;20238;-83
2021/06/21 07:14:54;;;;;;;4.05;3.22;;;16.20;99.90;;;;;;5012043;28;20180;-83
2021/06/21 07:17:19;;;;;;;4.75;2.38;;;16.30;99.90;;;;;;5012316;28;20563;-83
2021/06/21 07:19:45;;;;;;;2.63;2.30;;;16.20;99.90;;;;;;5012595;28;20171;-85
2021/06/21 07:22:11;;;;;;;3.35;2.53;;;16.30;99.90;;;;;;5012365;28;20664;-83
2021/06/21 07:24:37;;;;;;;3.58;3.10;;;16.20;99.90;;;;;;5012095;28;20169;-84
2021/06/21 07:27:04;;;;;;;3.58;3.28;;;16.10;99.90;;;;;;5012656;28;20276;-84
2021/06/21 07:29:31;;;;;;;3.13;2.88;;;16.20;99.90;;;;;;5012342;28;20164;-83
2021/06/21 07:31:57;;;;;;;3.15;2.88;;;16.20;99.90;;;;;;5012849;28;20208;-81
2021/06/21 07:34:23;;;;;;;3.33;2.60;;;16.30;99.90;;;;;;5014166;28;20176;-82
2021/06/21 07:36:49;;;;;;;2.33;2.13;;;16.30;99.90;;;;;;5018712;28;20532;-83
2021/06/21 07:39:15;;;;;;;3.50;2.80;;;16.30;99.90;;;;;;5026354;28;20176;-83
2021/06/21 07:41:41;;;;;;;2.65;2.45;;;16.10;99.90;;;;;;5024346;28;20680;-83
2021/06/21 07:44:07;;;;;;;2.45;2.10;;;16.10;99.90;;;;;;5019003;28;20161;-82
2021/06/21 07:46:32;;;;;;;2.10;1.90;;;16.40;99.90;;;;;;5015791;28;20176;-82
2021/06/21 07:48:59;;;;;;;4.25;2.25;;;16.50;99.90;;;;;;5019410;28;20171;-88
2021/06/21 07:51:25;;;;;;;1.80;1.70;;;16.40;99.90;;;;;;5017152;28;20212;-85
2021/06/21 07:53:52;;;;;;;1.70;1.60;;;16.50;99.90;;;;;;5017664;28;20200;-84
2021/06/21 07:56:22;;;;;;;4.25;2.00;;;16.50;99.90;;;;;;5015578;28;20179;-86
2021/06/21 07:58:49;;;;;;;3.60;2.20;;;16.50;99.90;;;;;;5017453;28;20164;-86
2021/06/21 08:01:16;;;;;;;1.88;1.77;;;16.70;99.90;;;;;;5015853;28;20156;-87
2021/06/21 08:03:43;;;;;;;2.13;1.90;;;16.90;99.90;;;;;;5015889;28;20172;-87
2021/06/21 08:06:13;;;;;;;2.15;1.90;;;16.80;99.90;;;;;;5017303;28;20161;-83
2021/06/21 08:08:40;;;;;;;2.03;1.83;;;16.90;99.90;;;;;;5016366;28;20172;-94
2021/06/21 08:11:07;;;;;;;1.85;1.75;;;17.00;99.90;;;;;;5015799;28;20164;-88
2021/06/21 08:13:32;;;;;;;1.58;1.48;;;17.10;99.90;;;;;;5015207;28;20622;-85
2021/06/21 08:15:58;;;;;;;1.85;1.75;;;17.30;99.90;;;;;;5016895;28;20169;-86
2021/06/21 08:18:24;;;;;;;1.88;1.45;;;17.60;99.90;;;;;;5016957;28;20172;-85
2021/06/21 08:20:50;;;;;;;1.23;1.20;;;17.80;99.90;;;;;;5015661;28;20612;-86
2021/06/21 08:23:17;;;;;;;1.23;1.13;;;18.00;99.90;;;;;;5015997;28;20261;-87
2021/06/21 08:25:43;;;;;;;5.88;1.48;;;18.30;99.90;;;;;;5015191;28;20211;-86
2021/06/21 08:28:09;;;;;;;2.65;1.90;;;18.40;99.90;;;;;;5015087;28;20228;-85
2021/06/21 08:30:36;;;;;;;1.83;1.67;;;18.40;99.90;;;;;;5015220;28;20188;-85
2021/06/21 08:33:02;;;;;;;1.45;1.35;;;18.80;99.90;;;;;;5015861;28;20210;-85
2021/06/21 08:35:28;;;;;;;1.90;1.80;;;18.90;99.90;;;;;;5014435;28;20588;-82
2021/06/21 08:37:53;;;;;;;15.15;3.35;;;18.90;99.90;;;;;;5014911;28;20308;-83
2021/06/21 08:40:21;;;;;;;8.05;2.17;;;18.70;99.90;;;;;;5013721;28;20168;-82
2021/06/21 08:42:47;;;;;;;2.08;1.60;;;18.70;99.90;;;;;;5013493;28;20189;-82
2021/06/21 08:45:14;;;;;;;6.18;1.50;;;18.70;99.90;;;;;;5012769;28;20527;-82
2021/06/21 08:47:39;;;;;;;3.00;1.95;;;18.60;99.90;;;;;;5005887;28;20185;-82
2021/06/21 08:50:08;;;;;;;4.40;2.30;;;18.40;99.90;;;;;;5005274;28;20177;-80
2021/06/21 08:52:34;;;;;;;1.90;1.80;;;18.40;99.90;;;;;;4999802;28;20221;-83
2021/06/21 08:55:04;;;;;;;4.28;1.73;;;18.30;99.90;;;;;;5002356;28;20184;-84
2021/06/21 08:57:39;;;;;;;2.15;1.95;;;18.30;99.90;;;;;;5010086;28;20633;-83
2021/06/21 09:00:09;;;;;;;7.07;2.13;;;18.40;99.90;;;;;;4995671;28;20173;-83
2021/06/21 09:02:35;;;;;;;13.98;3.85;;;18.40;99.90;;;;;;5009754;28;20197;-84
2021/06/21 09:05:04;;;;;;;1.90;1.80;;;18.50;99.90;;;;;;5009185;28;20175;-82
2021/06/21 09:07:30;;;;;;;1.92;1.73;;;18.50;99.90;;;;;;5009883;28;20165;-82
2021/06/21 09:09:58;;;;;;;2.78;1.90;;;18.50;99.90;;;;;;4994968;28;20179;-82
2021/06/21 09:12:32;;;;;;;2.28;2.00;;;18.50;99.90;;;;;;5009862;28;20676;-85
2021/06/21 09:15:00;;;;;;;2.65;2.45;;;18.60;99.90;;;;;;4992996;28;20268;-81
2021/06/21 09:17:27;;;;;;;1.95;1.85;;;18.70;99.90;;;;;;5009896;28;20169;-81
2021/06/21 09:19:56;;;;;;;2.35;2.10;;;18.60;99.90;;;;;;5009630;28;20200;-82
2021/06/21 09:22:50;;;;;;;2.65;2.45;;;18.60;99.90;;;;;;5009514;28;20235;-79
2021/06/21 09:25:15;;;;;;;1.95;1.80;;;18.60;99.90;;;;;;5009812;28;20173;-83
2021/06/21 09:27:52;;;;;;;15.52;3.58;;;18.70;99.90;;;;;;4993746;28;20237;-83
2021/06/21 09:30:18;;;;;;;3.45;2.47;;;18.70;99.90;;;;;;5009807;28;20594;-82
2021/06/21 09:32:53;;;;;;;8.30;2.30;;;18.80;99.90;;;;;;5009892;28;20299;-83
2021/06/21 09:35:31;;;;;;;5.45;2.50;;;19.00;99.90;;;;;;5009571;28;20169;-83
2021/06/21 09:37:59;;;;;;;2.50;2.30;;;19.00;99.90;;;;;;4993350;28;20180;-83
2021/06/21 09:40:34;;;;;;;2.40;2.20;;;18.70;99.90;;;;;;4995167;28;20630;-82
2021/06/21 09:43:25;;;;;;;12.25;2.38;;;18.40;99.90;;;;;;5009464;28;20200;-82
2021/06/21 09:46:11;;;;;;;2.30;2.10;;;18.30;99.90;;;;;;4993320;28;20173;-83
2021/06/21 09:48:45;;;;;;;2.03;1.92;;;18.10;99.90;;;;;;4994558;28;20193;-82
2021/06/21 09:51:29;;;;;;;2.40;2.20;;;18.20;99.90;;;;;;4993697;28;20165;-83
2021/06/21 09:53:58;;;;;;;3.53;2.72;;;18.50;99.90;;;;;;4994468;28;20212;-83
2021/06/21 09:56:46;;;;;;;2.42;2.22;;;18.40;99.90;;;;;;4994746;28;20512;-82
2021/06/21 09:59:26;;;;;;;3.17;2.88;;;18.10;99.90;;;;;;4992320;28;20177;-83
2021/06/21 10:02:31;;;;;;;2.88;2.60;;;18.10;99.90;;;;;;4993607;28;20196;-83
2021/06/21 10:04:57;;;;;;;2.70;2.22;;;18.00;99.90;;;;;;4977581;28;20181;-83
2021/06/21 10:07:36;;;;;;;2.95;2.75;;;18.30;99.90;;;;;;4998930;28;20708;-83
2021/06/21 10:10:07;;;;;;;5.35;2.45;;;18.50;99.90;;;;;;5014388;28;20196;-83
2021/06/21 10:12:33;;;;;;;4.30;3.10;;;18.40;99.90;;;;;;5016096;28;20197;-82
2021/06/21 10:14:59;;;;;;;3.03;2.83;;;18.50;99.90;;;;;;5031851;28;20169;-82
2021/06/21 10:17:26;;;;;;;2.83;2.28;;;18.70;99.90;;;;;;5032804;28;20173;-83
2021/06/21 10:19:53;;;;;;;3.03;2.78;;;18.80;99.90;;;;;;5017576;28;20173;-83
2021/06/21 10:22:21;;;;;;;3.25;2.95;;;18.70;99.90;;;;;;4998600;28;20201;-81
2021/06/21 10:24:52;;;;;;;3.67;3.38;;;18.50;99.90;;;;;;5010486;28;20165;-80
2021/06/21 10:27:21;;;;;;;3.47;3.15;;;18.70;99.90;;;;;;4994135;28;20333;-81
2021/06/21 10:29:48;;;;;;;2.47;2.28;;;18.60;99.90;;;;;;4994458;28;20180;-80
2021/06/21 10:32:15;;;;;;;3.20;3.00;;;18.50;99.90;;;;;;4994638;28;20216;-80
2021/06/21 10:34:41;;;;;;;8.50;3.08;;;18.70;99.90;;;;;;4994352;28;20256;-80
2021/06/21 10:37:17;;;;;;;3.75;3.45;;;18.70;99.90;;;;;;5008969;28;20219;-80
2021/06/21 10:40:14;;;;;;;3.55;3.25;;;18.90;99.90;;;;;;5008613;28;20597;-80
2021/06/21 10:42:43;;;;;;;3.40;3.10;;;18.90;99.90;;;;;;4991409;28;20252;-81
2021/06/21 10:45:21;;;;;;;3.67;3.47;;;18.90;99.90;;;;;;4992985;28;20211;-81
2021/06/21 10:47:49;;;;;;;4.13;3.28;;;18.90;99.90;;;;;;4993593;28;20171;-81
2021/06/21 10:50:20;;;;;;;3.97;3.47;;;19.10;99.90;;;;;;4993571;28;20166;-83
2021/06/21 10:52:56;;;;;;;3.80;3.50;;;19.00;99.90;;;;;;4994325;28;20212;-81
2021/06/21 10:57:54;;;;;;;5.82;4.25;;;19.40;99.90;;;;;;4995599;28;20173;-83
2021/06/21 11:00:22;;;;;;;4.07;3.75;;;19.60;99.90;;;;;;4994488;28;20176;-82
2021/06/21 11:02:48;;;;;;;7.20;3.88;;;19.60;99.90;;;;;;4994546;28;20193;-80
2021/06/21 11:05:31;;;;;;;4.82;4.47;;;19.50;99.90;;;;;;4994054;28;20655;-81
2021/06/21 11:08:13;;;;;;;5.32;4.93;;;19.40;99.90;;;;;;4994258;28;20184;-83
2021/06/21 11:10:38;;;;;;;6.40;6.00;;;19.50;99.90;;;;;;4994815;28;20172;-83
2021/06/21 11:13:32;;;;;;;6.28;5.88;;;19.70;99.90;;;;;;4997238;28;20213;-83
2021/06/21 11:16:19;;;;;;;8.35;6.13;;;19.60;99.90;;;;;;4998698;28;20173;-85
2021/06/21 11:19:09;;;;;;;5.65;5.25;;;18.90;99.90;;;;;;4997552;28;20161;-83
2021/06/21 11:21:57;;;;;;;8.13;5.43;;;18.80;99.90;;;;;;4997915;28;20197;-82
2021/06/21 11:24:48;;;;;;;5.15;4.75;;;18.90;99.90;;;;;;4998911;28;20181;-84
2021/06/21 11:27:25;;;;;;;4.55;4.25;;;18.80;99.90;;;;;;4999407;28;20182;-85
2021/06/21 11:29:58;;;;;;;6.90;4.80;;;19.00;99.90;;;;;;4998527;28;20229;-84
2021/06/21 11:32:25;;;;;;;5.43;5.03;;;19.20;99.90;;;;;;4998422;28;20217;-82
2021/06/21 11:34:54;;;;;;;11.05;8.60;;;19.40;99.90;;;;;;5013502;28;20200;-82
2021/06/21 11:37:41;;;;;;;7.35;6.82;;;19.40;99.90;;;;;;4998258;28;20173;-84
2021/06/21 11:40:16;;;;;;;8.57;5.25;;;19.50;99.90;;;;;;4998199;28;20633;-83
2021/06/21 11:42:43;;;;;;;6.63;6.13;;;19.20;99.90;;;;;;4997552;28;20676;-84
2021/06/21 11:45:09;;;;;;;4.78;4.38;;;19.40;99.90;;;;;;4999212;28;20176;-84
2021/06/21 11:47:37;;;;;;;7.32;4.72;;;19.50;99.90;;;;;;5013209;28;20245;-84
2021/06/21 11:50:15;;;;;;;6.50;4.47;;;19.60;99.90;;;;;;4997472;28;20197;-84
2021/06/21 11:52:45;;;;;;;6.28;5.07;;;19.30;99.90;;;;;;4997609;28;20267;-84
2021/06/21 11:55:18;;;;;;;5.00;4.55;;;19.20;99.90;;;;;;5012465;28;20220;-84
2021/06/21 11:57:49;;;;;;;6.57;4.78;;;19.00;99.90;;;;;;4997493;28;20170;-83
2021/06/21 12:00:16;;;;;;;30.98;6.30;;;18.80;99.90;;;;;;4996750;28;20161;-86
2021/06/21 12:02:42;;;;;;;20.70;5.78;;;18.90;99.90;;;;;;4998992;28;20185;-87
2021/06/21 12:05:13;;;;;;;37.25;6.03;;;19.10;99.90;;;;;;4999762;28;20200;-87
2021/06/21 12:07:41;;;;;;;11.73;5.57;;;19.20;99.90;;;;;;4996714;28;20160;-80
2021/06/21 12:10:20;;;;;;;5.30;4.80;;;19.30;99.90;;;;;;4996392;28;20169;-86
2021/06/21 12:12:48;;;;;;;3.88;3.58;;;19.30;99.90;;;;;;4995602;28;20688;-84
2021/06/21 12:15:26;;;;;;;3.88;3.55;;;19.10;99.90;;;;;;5012194;28;20176;-83
2021/06/21 12:17:53;;;;;;;4.13;3.72;;;19.00;99.90;;;;;;4997134;28;20239;-83
2021/06/21 12:20:19;;;;;;;3.95;3.65;;;19.00;99.90;;;;;;5012896;28;20170;-84
2021/06/21 12:22:58;;;;;;;4.55;4.25;;;19.00;99.90;;;;;;5012621;28;20225;-82
2021/06/21 12:25:31;;;;;;;5.18;4.72;;;18.80;99.90;;;;;;5013188;28;20181;-84
2021/06/21 12:28:12;;;;;;;7.50;4.95;;;18.80;99.90;;;;;;5012817;28;20239;-84
2021/06/21 12:30:42;;;;;;;5.07;4.68;;;18.70;99.90;;;;;;4996194;28;20539;-84
2021/06/21 12:33:43;;;;;;;4.82;4.43;;;18.70;99.90;;;;;;5010680;28;20209;-83
2021/06/21 12:36:15;;;;;;;5.80;4.93;;;18.80;99.90;;;;;;4996795;28;20173;-82
2021/06/21 12:38:55;;;;;;;4.13;3.83;;;18.90;99.90;;;;;;4994810;28;20617;-83
2021/06/21 12:41:25;;;;;;;10.18;3.85;;;19.00;99.90;;;;;;4996607;28;20522;-84
2021/06/21 12:43:58;;;;;;;3.90;3.60;;;19.20;99.90;;;;;;5015104;28;20165;-90
2021/06/21 12:46:27;;;;;;;3.70;3.20;;;19.30;99.90;;;;;;5015426;28;20173;-87
2021/06/21 12:48:53;;;;;;;6.43;3.40;;;19.30;99.90;;;;;;5015165;28;20176;-84
2021/06/21 12:51:20;;;;;;;10.80;4.38;;;19.40;99.90;;;;;;5006585;28;20539;-86
2021/06/21 12:53:51;;;;;;;49.90;10.68;;;19.60;99.90;;;;;;5036793;28;20211;-88
2021/06/21 12:56:30;;;;;;;3.88;3.58;;;19.90;99.90;;;;;;5037245;28;20168;-84
2021/06/21 12:59:00;;;;;;;5.97;3.53;;;20.00;99.90;;;;;;5035197;28;20237;-86